Wake Island Airfield, Wake Island

5:55 AM WAKT on November 25, 2014 (GMT +1200)
Wake Island Army Air Field | Change Station
CLOSE
Current Station
Airport
Location: Wake Island, Wake Island Army,
Elevation: 13 ft
Nearby Weather Stations

Elev 13 ft 19.28 °N, 166.64 °E | Updated 57 minutes ago

Partly Cloudy
Partly Cloudy
78 °F
Feels Like 78 °F
N
6
Wind Variable Wind from East

Today
High -- | Low -- °F
--% Chance of Precip.
Yesterday
High -- | Low -- °F
Precip. -- in
7:06 AM 6:13 PM
Waxing Crescent, 6% visible
Pressure 29.94 in
Visibility 6.2 miles
Clouds Few 2000 ft
Dew Point 74 °F
Humidity 88%
Rainfall 0.00 in
Snow Depth Not available.
UV 0 out of 12
Pollen Not available.
Air Quality Not available.
Flu Activity Not available.
METAR PWAK 241658Z AUTO 09005KT 9999 FEW020 25/23 A2992 RMK AO2 SLP138 T02530231

More Conditions Fewer Conditions

Pressure 29.94 in
Visibility 6.2 miles
Clouds Few 2000 ft
Dew Point 74 °F
Humidity 88%
Rainfall 0.00 in
Snow Depth Not available.
UV 0 out of 12
Pollen Not available.
Air Quality Not available.
Flu Activity Not available.
METAR PWAK 241658Z AUTO 09005KT 9999 FEW020 25/23 A2992 RMK AO2 SLP138 T02530231

More Conditions Fewer Conditions

10-Day Weather Forecast

Almanac

Astronomy

Nov. 25, 2014 Rise Set
Actual Time
Civil Twilight
Nautical Twilight
Astronomical Twilight
Moon
Length of Visible Light
Length of Day
Tomorrow will be .
, % of the Moon is Illuminated

Today's Extremes

Country Highs Country Lows

Community

WunderPhotos

Upload Photos

1,773,379 photos uploaded!

WunderBlogs® & News

Nearby

Air Quality

  Air Quality AQ Index Pollutant
Not available.

Snow Depth

Station Depth Elevation

Earthquake Activity

City Distance Mag. Time & Date
Minimum magnitude displayed is 2.5.

Coastal Water Temperatures

Place Temperature

Nearby Weather Stations